Terminal Aerodrome Forecast
Issued by NWS

Home | Current Version | Previous Version | Text Only | Print | Product List | Glossary On
Versions: 1 2 3 4 5 6 7 8 9 10 11 12 13
000
FTUS44 KLZK 210533
TAFBPK
TAF
KBPK 210533Z 2106/2206 16007KT P6SM SCT100 BKN250
     FM211000 15006KT P6SM SCT060 BKN100 BKN250 WS020/18040KT
     FM211500 16010G18KT P6SM SCT025 BKN050 BKN250
     FM211900 17010G18KT P6SM VCSH SCT030 BKN060 OVC100 PROB30
      2200/2206 33015G35KT 3SM TSRA OVC030CB=

USA.gov is the U.S. government's official web portal to all federal, state and local government web resources and services.